createdAt,value
2023-02-18T00:01:22.941Z,63.92
2023-02-18T00:03:50.725Z,56.58
2023-02-18T00:06:25.719Z,53.67
2023-02-18T00:08:53.866Z,54.28
2023-02-18T00:11:22.275Z,60.92
2023-02-18T00:13:57.893Z,60.17
2023-02-18T00:16:27.503Z,69.90
2023-02-18T00:19:04.075Z,54.90
2023-02-18T00:21:32.723Z,65.97
2023-02-18T00:24:00.100Z,64.72
2023-02-18T00:26:27.744Z,56.97
2023-02-18T00:28:55.236Z,58.22
2023-02-18T00:31:26.556Z,58.95
2023-02-18T00:33:53.885Z,60.92
2023-02-18T00:36:22.637Z,55.50
2023-02-18T00:38:55.989Z,66.22
2023-02-18T00:41:26.386Z,59.95
2023-02-18T00:43:53.450Z,64.75
2023-02-18T00:46:22.811Z,58.50
2023-02-18T00:48:49.881Z,62.83
2023-02-18T00:51:17.230Z,63.15
2023-02-18T00:53:44.553Z,70.38
2023-02-18T00:56:11.675Z,67.13
2023-02-18T00:58:38.766Z,61.35
2023-02-18T01:01:07.884Z,67.95
2023-02-18T01:03:37.143Z,59.58
2023-02-18T01:06:05.829Z,58.15
2023-02-18T01:08:34.507Z,69.22
2023-02-18T01:11:02.313Z,62.60
2023-02-18T01:13:29.988Z,66.00
2023-02-18T01:15:57.277Z,63.90
2023-02-18T01:18:26.519Z,72.45
2023-02-18T01:20:53.551Z,68.70
2023-02-18T01:23:20.793Z,57.33
2023-02-18T01:25:48.969Z,64.97
2023-02-18T01:28:16.415Z,74.22
2023-02-18T01:30:44.935Z,77.80
2023-02-18T01:33:11.873Z,65.50
2023-02-18T01:35:42.297Z,65.85
2023-02-18T01:38:10.139Z,67.35
2023-02-18T01:40:45.800Z,75.90
2023-02-18T01:43:14.961Z,75.22
2023-02-18T01:46:04.263Z,62.65
2023-02-18T01:48:39.746Z,59.72
2023-02-18T01:51:15.418Z,72.60
2023-02-18T01:54:16.985Z,64.43
2023-02-18T01:56:55.558Z,59.38
2023-02-18T01:59:40.306Z,63.58
2023-02-18T02:02:13.415Z,59.28
2023-02-18T02:04:41.142Z,53.92
2023-02-18T02:07:10.286Z,57.08
2023-02-18T02:09:40.066Z,62.80
2023-02-18T02:12:28.419Z,51.15
2023-02-18T02:15:33.931Z,55.63
2023-02-18T02:18:09.644Z,66.13
2023-02-18T02:23:46.667Z,46.88
2023-02-18T02:26:38.730Z,59.92
2023-02-18T02:29:36.620Z,53.22
2023-02-18T02:33:10.949Z,48.35
2023-02-18T02:36:18.117Z,55.08
2023-02-18T02:42:14.626Z,50.65
2023-02-18T02:44:57.321Z,62.10
2023-02-18T02:47:41.402Z,56.70
2023-02-18T02:50:29.248Z,69.45
2023-02-18T02:53:03.951Z,56.35
2023-02-18T02:55:30.844Z,59.17
2023-02-18T02:57:58.161Z,66.85
2023-02-18T03:00:45.028Z,57.47
2023-02-18T03:03:27.451Z,64.93
2023-02-18T03:06:36.655Z,65.55
2023-02-18T03:09:41.672Z,71.25
2023-02-18T03:12:34.210Z,63.00
2023-02-18T03:15:20.913Z,66.68
2023-02-18T03:18:12.219Z,60.42
2023-02-18T03:20:55.755Z,63.35
2023-02-18T03:23:29.350Z,65.35
2023-02-18T03:25:59.159Z,72.03
2023-02-18T03:28:32.313Z,72.85
2023-02-18T03:31:13.480Z,66.20
2023-02-18T03:33:50.233Z,72.68
2023-02-18T03:36:20.500Z,64.47
2023-02-18T03:38:57.040Z,68.25
2023-02-18T03:41:24.205Z,60.17
2023-02-18T03:43:53.518Z,61.63
2023-02-18T03:46:21.162Z,50.78
2023-02-18T03:48:48.287Z,61.38
2023-02-18T03:51:15.313Z,52.00
2023-02-18T03:53:43.147Z,47.55
2023-02-18T03:56:11.769Z,48.83
2023-02-18T03:58:38.934Z,36.35
2023-02-18T04:01:06.388Z,37.60
2023-02-18T04:03:33.541Z,32.33
2023-02-18T04:06:00.469Z,31.10
2023-02-18T04:08:27.605Z,32.15
2023-02-18T04:10:54.657Z,24.60
2023-02-18T04:13:22.199Z,30.55
2023-02-18T04:15:52.602Z,24.08
2023-02-18T04:18:20.573Z,21.27
2023-02-18T04:20:47.687Z,22.63
2023-02-18T04:23:14.938Z,20.90
2023-02-18T04:25:42.078Z,25.48
2023-02-18T04:28:13.312Z,23.05
2023-02-18T04:30:40.483Z,25.70
2023-02-18T04:33:07.648Z,21.25
2023-02-18T04:35:34.710Z,20.15
2023-02-18T04:38:01.604Z,16.92
2023-02-18T04:40:30.746Z,18.02
2023-02-18T04:42:58.809Z,18.10
2023-02-18T04:45:27.998Z,15.02
2023-02-18T04:47:55.299Z,16.95
2023-02-18T04:50:23.293Z,10.55
2023-02-18T04:52:50.823Z,9.35
2023-02-18T04:55:17.959Z,10.65
2023-02-18T04:57:44.929Z,9.32
2023-02-18T05:00:18.316Z,9.25
2023-02-18T05:02:46.026Z,8.50
2023-02-18T05:05:13.925Z,6.53
2023-02-18T05:07:42.474Z,6.70
2023-02-18T05:10:17.355Z,7.93
2023-02-18T05:12:44.503Z,5.90
2023-02-18T05:15:11.627Z,5.45
2023-02-18T05:17:38.736Z,5.55
2023-02-18T05:20:09.806Z,5.97
2023-02-18T05:22:37.886Z,5.57
2023-02-18T05:25:06.219Z,6.20
2023-02-18T05:27:33.603Z,8.02
2023-02-18T05:30:01.193Z,6.22
2023-02-18T05:32:28.234Z,5.82
2023-02-18T05:34:55.186Z,6.97
2023-02-18T05:37:22.186Z,3.83
2023-02-18T05:39:49.281Z,3.35
2023-02-18T05:42:16.224Z,5.05
2023-02-18T05:44:43.209Z,5.10
2023-02-18T05:47:12.563Z,8.13
2023-02-18T05:49:41.369Z,4.00
2023-02-18T05:52:09.487Z,4.18
2023-02-18T05:54:37.556Z,4.68
2023-02-18T05:57:05.112Z,4.05
2023-02-18T05:59:32.426Z,4.95
2023-02-18T06:01:59.676Z,3.28
2023-02-18T06:04:26.683Z,4.35
2023-02-18T06:06:53.820Z,6.13
2023-02-18T06:09:20.838Z,5.55
2023-02-18T06:11:47.809Z,6.68
2023-02-18T06:14:14.811Z,6.35
2023-02-18T06:16:41.891Z,6.30
2023-02-18T06:19:09.109Z,7.82
2023-02-18T06:21:36.132Z,10.13
2023-02-18T06:24:03.215Z,10.70
2023-02-18T06:26:30.505Z,12.10
2023-02-18T06:28:57.455Z,9.30
2023-02-18T06:31:24.523Z,11.90
2023-02-18T06:33:51.681Z,9.45
2023-02-18T06:36:18.876Z,13.23
2023-02-18T06:38:46.512Z,12.95
2023-02-18T06:41:14.979Z,12.23
2023-02-18T06:43:42.249Z,10.45
2023-02-18T06:46:09.692Z,12.00
2023-02-18T06:48:37.880Z,13.40
2023-02-18T06:51:06.386Z,14.80
2023-02-18T06:53:33.447Z,12.82
2023-02-18T06:56:00.402Z,16.90
2023-02-18T06:58:27.355Z,16.00
2023-02-18T07:00:54.331Z,15.27
2023-02-18T07:03:21.363Z,14.55
2023-02-18T07:05:48.467Z,17.38
2023-02-18T07:08:15.899Z,15.88
2023-02-18T07:10:42.994Z,15.43
2023-02-18T07:13:10.384Z,10.48
2023-02-18T07:15:37.609Z,12.52
2023-02-18T07:18:04.849Z,9.52
2023-02-18T07:20:31.970Z,12.00
2023-02-18T07:22:59.295Z,11.35
2023-02-18T07:25:26.686Z,10.10
2023-02-18T07:27:53.640Z,10.30
2023-02-18T07:30:21.096Z,10.63
2023-02-18T07:32:48.110Z,11.07
2023-02-18T07:35:17.128Z,13.05
2023-02-18T07:37:49.116Z,13.90
2023-02-18T07:40:20.635Z,11.38
2023-02-18T07:42:48.499Z,9.35
2023-02-18T07:45:15.796Z,13.85
2023-02-18T07:47:42.906Z,13.70
2023-02-18T07:50:10.825Z,14.85
2023-02-18T07:52:37.931Z,19.77
2023-02-18T07:55:05.443Z,22.80
2023-02-18T07:57:32.459Z,15.50
2023-02-18T07:59:59.442Z,16.90
2023-02-18T08:02:26.582Z,15.88
2023-02-18T08:04:53.585Z,16.40
2023-02-18T08:07:23.114Z,12.30
2023-02-18T08:09:50.901Z,15.77
2023-02-18T08:12:18.322Z,15.30
2023-02-18T08:14:45.314Z,11.93
2023-02-18T08:17:12.236Z,24.92
2023-02-18T08:19:39.220Z,17.27
2023-02-18T08:22:06.400Z,19.60
2023-02-18T08:24:33.455Z,14.75
2023-02-18T08:27:01.681Z,18.48
2023-02-18T08:29:29.891Z,18.50
2023-02-18T08:31:59.779Z,12.38
2023-02-18T08:34:26.928Z,18.88
2023-02-18T08:36:54.095Z,20.30
2023-02-18T08:39:21.082Z,13.65
2023-02-18T08:41:48.063Z,30.60
2023-02-18T08:44:15.129Z,25.17
2023-02-18T08:46:42.186Z,22.38
2023-02-18T08:49:09.387Z,10.95
2023-02-18T08:51:36.545Z,14.95
2023-02-18T08:54:04.063Z,17.42
2023-02-18T08:56:32.721Z,12.85
2023-02-18T08:58:59.931Z,29.23
2023-02-18T09:01:27.497Z,18.95
2023-02-18T09:03:54.632Z,24.35
2023-02-18T09:06:21.980Z,19.23
2023-02-18T09:08:49.554Z,13.75
2023-02-18T09:11:17.820Z,24.23
2023-02-18T09:13:44.897Z,12.93
2023-02-18T09:16:20.977Z,9.00
2023-02-18T09:18:48.847Z,8.63
2023-02-18T09:21:19.109Z,12.35
2023-02-18T09:23:46.697Z,13.05
2023-02-18T09:26:16.850Z,12.70
2023-02-18T09:28:44.107Z,15.40
2023-02-18T09:31:18.909Z,7.85
2023-02-18T09:33:53.822Z,6.37
2023-02-18T09:36:20.807Z,14.35
2023-02-18T09:38:48.359Z,9.55
2023-02-18T09:41:41.721Z,16.65
2023-02-18T09:44:27.563Z,15.43
2023-02-18T09:47:02.747Z,9.55
2023-02-18T09:49:35.291Z,22.33
2023-02-18T09:52:23.776Z,6.63
2023-02-18T09:54:51.897Z,10.95
2023-02-18T09:57:36.931Z,13.88
2023-02-18T10:00:13.549Z,6.22
2023-02-18T10:02:49.583Z,11.60
2023-02-18T10:05:17.224Z,14.57
2023-02-18T10:07:46.438Z,12.38
2023-02-18T10:10:40.453Z,9.23
2023-02-18T10:13:30.816Z,12.38
2023-02-18T10:15:58.076Z,12.15
2023-02-18T10:18:36.235Z,12.52
2023-02-18T10:21:12.149Z,9.38
2023-02-18T10:23:46.077Z,12.13
2023-02-18T10:26:17.923Z,15.60
2023-02-18T10:28:45.564Z,17.20
2023-02-18T10:31:20.911Z,21.70
2023-02-18T10:34:07.770Z,16.48
2023-02-18T10:37:10.873Z,12.75
2023-02-18T10:40:12.973Z,21.15
2023-02-18T10:43:13.288Z,9.98
2023-02-18T10:46:13.638Z,20.25
2023-02-18T10:49:19.747Z,13.23
2023-02-18T10:51:51.985Z,9.20
2023-02-18T10:54:24.318Z,15.55
2023-02-18T10:56:53.538Z,16.17
2023-02-18T10:59:33.392Z,16.20
2023-02-18T11:02:11.970Z,15.88
2023-02-18T11:04:42.724Z,20.70
2023-02-18T11:07:34.794Z,15.38
2023-02-18T11:10:22.667Z,17.35
2023-02-18T11:12:56.024Z,18.83
2023-02-18T11:15:26.777Z,17.38
2023-02-18T11:18:12.348Z,12.75
2023-02-18T11:20:40.583Z,14.48
2023-02-18T11:23:07.484Z,13.38
2023-02-18T11:25:37.919Z,27.92
2023-02-18T11:28:28.692Z,9.07
2023-02-18T11:31:00.315Z,19.60
2023-02-18T11:33:45.993Z,14.15
2023-02-18T11:36:33.425Z,15.88
2023-02-18T11:39:21.911Z,19.77
2023-02-18T11:42:01.365Z,17.80
2023-02-18T11:44:49.994Z,11.32
2023-02-18T11:47:16.869Z,15.88
2023-02-18T11:49:58.771Z,16.92
2023-02-18T11:52:30.227Z,16.92
2023-02-18T11:55:11.628Z,19.52
2023-02-18T11:57:42.590Z,13.55
2023-02-18T12:00:40.476Z,20.08
2023-02-18T12:03:34.965Z,15.68
2023-02-18T12:06:06.300Z,15.80
2023-02-18T12:08:47.494Z,9.65
2023-02-18T12:11:29.416Z,12.55
2023-02-18T12:13:58.778Z,19.98
2023-02-18T12:16:41.281Z,14.13
2023-02-18T12:19:46.547Z,16.77
2023-02-18T12:22:45.256Z,14.40
2023-02-18T12:26:06.442Z,17.70
2023-02-18T12:28:54.341Z,17.98
2023-02-18T12:31:43.230Z,13.75
2023-02-18T12:34:55.273Z,13.02
2023-02-18T12:38:16.814Z,24.88
2023-02-18T12:41:26.719Z,15.55
2023-02-18T12:44:27.729Z,18.98
2023-02-18T12:47:46.078Z,13.05
2023-02-18T12:50:36.920Z,15.10
2023-02-18T12:53:38.418Z,14.77
2023-02-18T12:56:41.720Z,13.38
2023-02-18T13:00:04.221Z,14.00
2023-02-18T13:02:52.266Z,11.95
2023-02-18T13:05:42.678Z,14.27
2023-02-18T13:08:27.109Z,11.02
2023-02-18T13:11:02.671Z,11.52
2023-02-18T13:13:42.296Z,14.07
2023-02-18T13:16:20.118Z,20.17
2023-02-18T13:19:02.528Z,10.32
2023-02-18T13:21:31.177Z,14.63
2023-02-18T13:24:32.561Z,16.00
2023-02-18T13:27:14.176Z,12.18
2023-02-18T13:30:19.961Z,18.10
2023-02-18T13:33:22.611Z,13.55
2023-02-18T13:36:11.229Z,9.80
2023-02-18T13:39:07.242Z,13.80
2023-02-18T13:41:43.252Z,9.93
2023-02-18T13:44:22.296Z,11.55
2023-02-18T13:46:54.426Z,8.82
2023-02-18T13:49:25.540Z,13.60
2023-02-18T13:51:55.972Z,7.60
2023-02-18T13:54:29.038Z,11.80
2023-02-18T13:57:06.334Z,9.85
2023-02-18T13:59:47.407Z,14.45
2023-02-18T14:02:20.330Z,8.15
2023-02-18T14:04:47.278Z,8.30
2023-02-18T14:07:41.657Z,18.95
2023-02-18T14:10:33.202Z,6.43
2023-02-18T14:12:59.996Z,5.97
2023-02-18T14:15:26.835Z,10.35
2023-02-18T14:18:14.611Z,9.75
2023-02-18T14:20:41.439Z,7.63
2023-02-18T14:23:37.480Z,15.48
2023-02-18T14:26:16.385Z,7.15
2023-02-18T14:28:54.793Z,9.05
2023-02-18T14:31:44.953Z,11.02
2023-02-18T14:34:23.818Z,9.35
2023-02-18T14:37:18.286Z,9.80
2023-02-18T14:40:04.749Z,13.52
2023-02-18T14:43:01.814Z,13.48
2023-02-18T14:46:20.832Z,7.82
2023-02-18T14:48:59.658Z,8.20
2023-02-18T14:51:29.795Z,6.97
2023-02-18T14:53:57.041Z,9.43
2023-02-18T14:56:24.397Z,9.93
2023-02-18T14:58:58.552Z,7.75
2023-02-18T15:01:34.219Z,13.35
2023-02-18T15:06:38.529Z,4.97
2023-02-18T15:09:22.424Z,6.68
2023-02-18T15:11:55.427Z,8.20
2023-02-18T15:14:31.682Z,5.40
2023-02-18T15:17:00.265Z,10.20
2023-02-18T15:19:37.964Z,13.68
2023-02-18T15:22:05.001Z,13.57
2023-02-18T15:24:38.037Z,4.88
2023-02-18T15:27:34.157Z,12.73
2023-02-18T15:30:27.930Z,9.30
2023-02-18T15:32:59.765Z,5.03
2023-02-18T15:35:31.511Z,9.98
2023-02-18T15:38:00.619Z,6.63
2023-02-18T15:40:32.562Z,5.38
2023-02-18T15:43:02.771Z,19.77
2023-02-18T15:45:43.328Z,13.52
2023-02-18T15:48:40.720Z,5.13
2023-02-18T15:51:17.733Z,10.95
2023-02-18T15:53:49.757Z,7.93
2023-02-18T15:56:32.913Z,17.30
2023-02-18T15:59:20.792Z,4.03
2023-02-18T16:02:02.819Z,6.63
2023-02-18T16:04:34.205Z,8.15
2023-02-18T16:07:26.337Z,9.77
2023-02-18T16:10:16.975Z,17.60
2023-02-18T16:12:50.246Z,18.98
2023-02-18T16:15:27.583Z,16.83
2023-02-18T16:17:54.831Z,16.13
2023-02-18T16:20:36.291Z,38.88
2023-02-18T16:23:14.591Z,25.83
2023-02-18T16:25:49.584Z,22.25
2023-02-18T16:28:32.863Z,14.95
2023-02-18T16:30:59.824Z,15.40
2023-02-18T16:33:26.804Z,16.73
2023-02-18T16:35:56.274Z,24.98
2023-02-18T16:38:25.176Z,9.02
2023-02-18T16:40:55.654Z,16.90
2023-02-18T16:43:26.988Z,18.13
2023-02-18T16:45:57.955Z,27.88
2023-02-18T16:48:31.492Z,15.05
2023-02-18T16:51:03.762Z,15.38
2023-02-18T16:53:30.794Z,16.20
2023-02-18T16:55:57.775Z,12.02
2023-02-18T16:58:25.381Z,20.83
2023-02-18T17:00:53.422Z,13.15
2023-02-18T17:03:21.010Z,12.82
2023-02-18T17:05:48.068Z,12.45
2023-02-18T17:08:27.217Z,21.35
2023-02-18T17:10:57.617Z,16.10
2023-02-18T17:13:29.166Z,17.80
2023-02-18T17:15:58.960Z,14.48
2023-02-18T17:18:26.733Z,14.23
2023-02-18T17:20:54.592Z,18.90
2023-02-18T17:23:24.247Z,26.05
2023-02-18T17:25:52.774Z,17.80
2023-02-18T17:28:20.172Z,18.55
2023-02-18T17:30:58.799Z,22.38
2023-02-18T17:33:26.134Z,20.75
2023-02-18T17:35:53.109Z,20.48
2023-02-18T17:38:20.413Z,21.58
2023-02-18T17:40:49.923Z,18.77
2023-02-18T17:43:18.433Z,19.45
2023-02-18T17:45:54.033Z,21.42
2023-02-18T17:48:21.481Z,17.67
2023-02-18T17:50:48.829Z,21.27
2023-02-18T17:53:16.931Z,19.63
2023-02-18T17:55:46.004Z,15.60
2023-02-18T17:58:14.767Z,15.27
2023-02-18T18:00:59.097Z,19.30
2023-02-18T18:03:26.235Z,18.60
2023-02-18T18:05:54.526Z,21.15
2023-02-18T18:08:21.526Z,22.67
2023-02-18T18:10:53.348Z,17.60
2023-02-18T18:13:27.576Z,21.40
2023-02-18T18:15:57.708Z,21.45
2023-02-18T18:18:26.334Z,22.08
2023-02-18T18:20:58.727Z,20.55
2023-02-18T18:23:25.833Z,21.17
2023-02-18T18:25:56.192Z,28.35
2023-02-18T18:28:24.609Z,24.23
2023-02-18T18:30:54.315Z,27.98
2023-02-18T18:33:25.503Z,38.47
2023-02-18T18:35:54.726Z,24.30
2023-02-18T18:38:24.491Z,25.10
2023-02-18T18:40:52.499Z,24.67
2023-02-18T18:43:27.068Z,31.60
2023-02-18T18:45:54.780Z,23.58
2023-02-18T18:48:23.537Z,29.48
2023-02-18T18:50:51.809Z,23.80
2023-02-18T18:53:22.490Z,24.02
2023-02-18T18:55:52.551Z,27.38
2023-02-18T18:58:24.625Z,35.60
2023-02-18T19:00:59.089Z,28.45
2023-02-18T19:03:28.736Z,27.98
2023-02-18T19:05:56.372Z,34.03
2023-02-18T19:08:23.512Z,37.65
2023-02-18T19:10:54.516Z,28.38
2023-02-18T19:13:28.579Z,30.48
2023-02-18T19:16:13.389Z,24.17
2023-02-18T19:18:40.546Z,27.42
2023-02-18T19:21:07.710Z,29.00
2023-02-18T19:23:35.079Z,23.17
2023-02-18T19:26:02.049Z,26.23
2023-02-18T19:28:29.076Z,27.63
2023-02-18T19:30:56.140Z,24.38
2023-02-18T19:33:23.174Z,29.35
2023-02-18T19:35:50.178Z,32.38
2023-02-18T19:38:18.710Z,33.63
2023-02-18T19:40:46.359Z,30.17
2023-02-18T19:43:13.598Z,39.03
2023-02-18T19:45:46.164Z,31.00
2023-02-18T19:48:14.954Z,36.63
2023-02-18T19:50:43.720Z,40.55
2023-02-18T19:53:11.366Z,41.03
2023-02-18T19:55:39.150Z,43.00
2023-02-18T19:58:07.025Z,44.58
2023-02-18T20:00:34.043Z,47.95
2023-02-18T20:03:01.312Z,54.25
2023-02-18T20:05:28.318Z,45.33
2023-02-18T20:07:55.313Z,40.33
2023-02-18T20:10:22.609Z,30.98
2023-02-18T20:12:54.271Z,45.10
2023-02-18T20:15:22.226Z,40.50
2023-02-18T20:17:50.344Z,39.55
2023-02-18T20:20:18.036Z,35.40
2023-02-18T20:22:45.464Z,42.15
2023-02-18T20:25:12.489Z,31.73
2023-02-18T20:27:47.989Z,31.58
2023-02-18T20:30:21.647Z,36.63
2023-02-18T20:32:48.642Z,35.38
2023-02-18T20:35:15.650Z,36.70
2023-02-18T20:37:42.760Z,31.40
2023-02-18T20:40:10.056Z,27.27
2023-02-18T20:42:38.787Z,28.77
2023-02-18T20:45:06.396Z,32.35
2023-02-18T20:47:33.543Z,28.17
2023-02-18T20:50:00.462Z,30.95
2023-02-18T20:52:27.801Z,29.98
2023-02-18T20:54:54.719Z,26.70
2023-02-18T20:57:21.860Z,34.75
2023-02-18T20:59:48.875Z,36.63
2023-02-18T21:02:16.774Z,49.92
2023-02-18T21:04:45.045Z,39.10
2023-02-18T21:07:12.095Z,43.85
2023-02-18T21:09:39.106Z,39.70
2023-02-18T21:12:06.172Z,34.83
2023-02-18T21:14:33.119Z,43.65
2023-02-18T21:17:00.078Z,37.38
2023-02-18T21:19:27.096Z,32.70
2023-02-18T21:21:54.256Z,32.40
2023-02-18T21:24:21.277Z,34.70
2023-02-18T21:26:48.688Z,25.65
2023-02-18T21:29:17.106Z,29.48
2023-02-18T21:31:44.736Z,31.48
2023-02-18T21:34:14.560Z,26.67
2023-02-18T21:36:43.290Z,31.42
2023-02-18T21:39:10.832Z,28.67
2023-02-18T21:41:40.768Z,25.50
2023-02-18T21:44:09.103Z,24.20
2023-02-18T21:46:36.764Z,21.58
2023-02-18T21:49:12.575Z,22.98
2023-02-18T21:51:58.175Z,21.05
2023-02-18T21:54:42.723Z,21.08
2023-02-18T21:57:18.573Z,22.83
2023-02-18T21:59:46.194Z,18.48
2023-02-18T22:02:21.833Z,13.27
2023-02-18T22:04:50.268Z,16.63
2023-02-18T22:07:19.766Z,20.95
2023-02-18T22:09:48.620Z,14.27
2023-02-18T22:12:16.526Z,11.85
2023-02-18T22:14:44.134Z,17.00
2023-02-18T22:17:11.119Z,18.45
2023-02-18T22:19:38.208Z,17.75
2023-02-18T22:22:05.875Z,18.80
2023-02-18T22:24:33.094Z,22.95
2023-02-18T22:27:01.573Z,22.42
2023-02-18T22:29:30.350Z,24.02
2023-02-18T22:31:57.375Z,25.40
2023-02-18T22:34:24.815Z,25.27
2023-02-18T22:36:51.762Z,24.63
2023-02-18T22:39:18.965Z,30.52
2023-02-18T22:41:45.908Z,37.42
2023-02-18T22:44:16.066Z,39.80
2023-02-18T22:46:43.696Z,29.85
2023-02-18T22:49:11.983Z,40.20
2023-02-18T22:51:42.717Z,48.55
2023-02-18T22:54:17.087Z,37.50
2023-02-18T22:56:45.991Z,47.22
2023-02-18T22:59:15.799Z,41.47
2023-02-18T23:01:49.212Z,34.45
2023-02-18T23:04:19.312Z,49.92
2023-02-18T23:06:47.507Z,46.95
2023-02-18T23:09:19.008Z,46.53
2023-02-18T23:11:50.037Z,50.35
2023-02-18T23:14:21.363Z,45.42
2023-02-18T23:17:12.939Z,48.53
2023-02-18T23:19:42.268Z,50.40
2023-02-18T23:22:11.932Z,40.50
2023-02-18T23:24:42.675Z,45.33
2023-02-18T23:27:11.792Z,49.35
2023-02-18T23:29:39.417Z,50.55
2023-02-18T23:32:07.222Z,46.22
2023-02-18T23:34:34.994Z,47.15
2023-02-18T23:37:02.002Z,44.45
2023-02-18T23:39:29.655Z,35.47
2023-02-18T23:41:56.883Z,32.22
2023-02-18T23:44:26.291Z,33.42
2023-02-18T23:46:53.875Z,38.53
2023-02-18T23:49:24.977Z,32.45
2023-02-18T23:51:54.791Z,45.85
2023-02-18T23:54:23.074Z,36.83
2023-02-18T23:56:50.029Z,41.72
2023-02-18T23:59:17.453Z,37.33
